Time;durP1;ratioP1;P1;durP2;ratioP2;P2;SDS_P1;SDS_P2;PMS_P1;PMS_P2;Temp;Humidity;BMP_temperature;BMP_pressure;BME280_temperature;BME280_humidity;BME280_pressure;Samples;Min_cycle;Max_cycle;Signal;HPM_P1;HPM_P2
2023/10/20 00:01:03;;;;;;;26.98;13.82;;;;;;;;;;5044976;28;20044;-72
2023/10/20 00:03:30;;;;;;;22.83;13.90;;;;;;;;;;5043926;28;20068;-72
2023/10/20 00:05:56;;;;;;;22.00;14.18;;;;;;;;;;5050737;28;20033;-72
2023/10/20 00:08:23;;;;;;;25.63;14.10;;;;;;;;;;5043859;28;20406;-72
2023/10/20 00:10:49;;;;;;;24.60;12.98;;;;;;;;;;5040518;28;20033;-72
2023/10/20 00:13:15;;;;;;;26.05;14.77;;;;;;;;;;5049779;28;20029;-72
2023/10/20 00:15:44;;;;;;;22.65;13.45;;;;;;;;;;5037219;28;20099;-72
2023/10/20 00:18:12;;;;;;;25.75;14.07;;;;;;;;;;5039587;28;20052;-72
2023/10/20 00:20:38;;;;;;;22.40;12.55;;;;;;;;;;5042993;28;20037;-72
2023/10/20 00:23:05;;;;;;;28.00;14.50;;;;;;;;;;5050065;28;20040;-72
2023/10/20 00:25:31;;;;;;;24.60;14.95;;;;;;;;;;5048948;28;20112;-73
2023/10/20 00:27:57;;;;;;;24.25;13.95;;;;;;;;;;5028479;28;20040;-71
2023/10/20 00:30:23;;;;;;;21.67;14.15;;;;;;;;;;5036217;28;20029;-72
2023/10/20 00:32:49;;;;;;;21.65;13.55;;;;;;;;;;5031459;28;20486;-73
2023/10/20 00:35:15;;;;;;;23.60;13.65;;;;;;;;;;5047153;28;20041;-72
2023/10/20 00:37:41;;;;;;;22.10;13.13;;;;;;;;;;5043878;28;20103;-72
2023/10/20 00:40:08;;;;;;;26.00;14.52;;;;;;;;;;5046774;28;20026;-73
2023/10/20 00:42:35;;;;;;;26.15;14.55;;;;;;;;;;5037962;28;20036;-72
2023/10/20 00:45:01;;;;;;;24.17;13.30;;;;;;;;;;5041281;28;20034;-73
2023/10/20 00:47:27;;;;;;;24.42;13.50;;;;;;;;;;5035802;28;20096;-72
2023/10/20 00:49:54;;;;;;;22.13;13.57;;;;;;;;;;5031751;28;20033;-72
2023/10/20 00:52:21;;;;;;;20.83;12.80;;;;;;;;;;5034910;28;20061;-72
2023/10/20 00:54:47;;;;;;;24.23;13.93;;;;;;;;;;5048238;28;20131;-72
2023/10/20 00:57:16;;;;;;;26.45;14.75;;;;;;;;;;5037690;28;20038;-72
2023/10/20 00:59:42;;;;;;;29.17;16.30;;;;;;;;;;5031345;28;20072;-72
2023/10/20 01:02:08;;;;;;;25.02;14.02;;;;;;;;;;5039779;28;20038;-72
2023/10/20 01:04:34;;;;;;;26.95;15.45;;;;;;;;;;5031427;28;20043;-72
2023/10/20 01:07:00;;;;;;;28.83;16.10;;;;;;;;;;5029159;28;20045;-73
2023/10/20 01:09:27;;;;;;;30.33;16.05;;;;;;;;;;5042951;28;20384;-72
2023/10/20 01:11:54;;;;;;;31.40;17.08;;;;;;;;;;5040539;28;20042;-73
2023/10/20 01:14:20;;;;;;;33.75;16.23;;;;;;;;;;5039112;28;20029;-72
2023/10/20 01:16:47;;;;;;;34.97;16.92;;;;;;;;;;5045871;28;20037;-73
2023/10/20 01:19:12;;;;;;;31.70;17.55;;;;;;;;;;5050539;28;20064;-72
2023/10/20 01:21:38;;;;;;;33.03;17.02;;;;;;;;;;5030959;28;20068;-73
2023/10/20 01:24:05;;;;;;;36.92;17.63;;;;;;;;;;5043555;28;20124;-73
2023/10/20 01:26:31;;;;;;;29.45;17.42;;;;;;;;;;5040778;28;20040;-73
2023/10/20 01:28:57;;;;;;;31.25;16.02;;;;;;;;;;5047401;28;20037;-73
2023/10/20 01:31:23;;;;;;;40.17;17.40;;;;;;;;;;5039345;28;20587;-73
2023/10/20 01:33:50;;;;;;;34.67;17.33;;;;;;;;;;5030315;28;20033;-73
2023/10/20 01:36:16;;;;;;;38.28;18.17;;;;;;;;;;5033429;28;20040;-74
2023/10/20 01:38:42;;;;;;;40.45;18.42;;;;;;;;;;5045473;28;20041;-73
2023/10/20 01:41:08;;;;;;;32.20;16.13;;;;;;;;;;5044570;28;20033;-74
2023/10/20 01:43:34;;;;;;;38.70;19.48;;;;;;;;;;5038606;28;20034;-73
2023/10/20 01:46:03;;;;;;;30.80;18.02;;;;;;;;;;5041850;28;20112;-73
2023/10/20 01:48:30;;;;;;;35.10;17.73;;;;;;;;;;5042129;28;20483;-73
2023/10/20 01:50:59;;;;;;;41.83;17.98;;;;;;;;;;5042784;28;20084;-73
2023/10/20 01:53:25;;;;;;;37.25;19.00;;;;;;;;;;5045443;28;20024;-73
2023/10/20 01:55:51;;;;;;;41.40;19.30;;;;;;;;;;5051015;28;20115;-73
2023/10/20 01:58:18;;;;;;;45.05;18.98;;;;;;;;;;5035061;28;20056;-72
2023/10/20 02:00:45;;;;;;;41.25;18.85;;;;;;;;;;5050656;28;20501;-72
2023/10/20 02:03:11;;;;;;;41.70;19.70;;;;;;;;;;5047161;28;20021;-73
2023/10/20 02:05:37;;;;;;;35.95;16.70;;;;;;;;;;5034088;28;20029;-72
2023/10/20 02:08:03;;;;;;;39.35;18.63;;;;;;;;;;5037019;28;20056;-73
2023/10/20 02:10:29;;;;;;;32.45;18.13;;;;;;;;;;5038863;28;20044;-73
2023/10/20 02:12:57;;;;;;;45.15;20.00;;;;;;;;;;5046761;28;20017;-73
2023/10/20 02:15:23;;;;;;;42.03;19.80;;;;;;;;;;5046214;28;20060;-73
2023/10/20 02:17:49;;;;;;;37.88;18.55;;;;;;;;;;5050954;28;20036;-73
2023/10/20 02:20:20;;;;;;;32.45;18.17;;;;;;;;;;5049656;28;20029;-72
2023/10/20 02:22:48;;;;;;;40.80;19.73;;;;;;;;;;5041512;28;20033;-73
2023/10/20 02:25:15;;;;;;;35.50;19.60;;;;;;;;;;5043807;28;20025;-73
2023/10/20 02:27:42;;;;;;;44.72;18.85;;;;;;;;;;5049949;28;20065;-72
2023/10/20 02:30:08;;;;;;;33.42;18.48;;;;;;;;;;5036447;28;20017;-73
2023/10/20 02:32:34;;;;;;;32.65;17.13;;;;;;;;;;5034001;28;20038;-73
2023/10/20 02:35:01;;;;;;;40.00;20.65;;;;;;;;;;5043095;28;20018;-73
2023/10/20 02:37:27;;;;;;;41.05;18.63;;;;;;;;;;5052921;28;20179;-74
2023/10/20 02:39:53;;;;;;;47.67;21.30;;;;;;;;;;5029918;28;20021;-73
2023/10/20 02:42:19;;;;;;;36.58;18.55;;;;;;;;;;5046161;28;20047;-74
2023/10/20 02:44:45;;;;;;;43.58;19.05;;;;;;;;;;5037124;28;20033;-73
2023/10/20 02:47:11;;;;;;;39.83;19.58;;;;;;;;;;5039596;28;20048;-73
2023/10/20 02:49:37;;;;;;;39.42;18.38;;;;;;;;;;5046258;28;20042;-72
2023/10/20 02:52:03;;;;;;;36.17;17.38;;;;;;;;;;5040648;28;20453;-72
2023/10/20 02:54:29;;;;;;;33.83;18.08;;;;;;;;;;5048762;28;20127;-73
2023/10/20 02:56:56;;;;;;;35.47;18.38;;;;;;;;;;5047675;28;20128;-73
2023/10/20 02:59:23;;;;;;;41.35;18.00;;;;;;;;;;5039683;28;20029;-73
2023/10/20 03:01:49;;;;;;;37.55;17.33;;;;;;;;;;5051170;28;20425;-73
2023/10/20 03:04:15;;;;;;;36.13;18.50;;;;;;;;;;5032975;28;20041;-73
2023/10/20 03:06:41;;;;;;;36.42;19.02;;;;;;;;;;5039295;28;20186;-73
2023/10/20 03:09:07;;;;;;;31.77;17.80;;;;;;;;;;5041431;28;20037;-72
2023/10/20 03:11:34;;;;;;;34.45;17.83;;;;;;;;;;5037625;28;20061;-73
2023/10/20 03:14:00;;;;;;;30.92;17.15;;;;;;;;;;5033033;28;20025;-72
2023/10/20 03:16:27;;;;;;;35.92;17.30;;;;;;;;;;5048959;28;20167;-72
2023/10/20 03:18:53;;;;;;;33.97;17.60;;;;;;;;;;5051665;28;20108;-72
2023/10/20 03:21:21;;;;;;;30.30;16.08;;;;;;;;;;5046668;28;20123;-73
2023/10/20 03:23:47;;;;;;;31.20;16.73;;;;;;;;;;5027519;28;20120;-72
2023/10/20 03:26:13;;;;;;;30.45;16.98;;;;;;;;;;5041950;28;20049;-73
2023/10/20 03:28:39;;;;;;;27.45;16.45;;;;;;;;;;5055702;28;20035;-73
2023/10/20 03:31:05;;;;;;;36.30;17.05;;;;;;;;;;5056640;28;20420;-73
2023/10/20 03:33:31;;;;;;;31.48;16.92;;;;;;;;;;5032456;28;20037;-74
2023/10/20 03:36:04;;;;;;;29.27;16.85;;;;;;;;;;5032144;28;20037;-74
2023/10/20 03:38:30;;;;;;;;;;;;;;;;;;5045867;28;20423;-73
2023/10/20 03:41:11;;;;;;;39.25;16.58;;;;;;;;;;5041080;28;20063;-73
2023/10/20 03:43:38;;;;;;;31.58;15.25;;;;;;;;;;5035843;28;20025;-73
2023/10/20 03:46:04;;;;;;;29.58;16.25;;;;;;;;;;5049103;28;20045;-72
2023/10/20 03:48:33;;;;;;;29.17;16.17;;;;;;;;;;5047596;28;20029;-72
2023/10/20 03:50:59;;;;;;;33.83;16.88;;;;;;;;;;5048677;28;20060;-72
2023/10/20 03:53:33;;;;;;;29.23;15.98;;;;;;;;;;5048726;28;20124;-74
2023/10/20 03:56:02;;;;;;;31.23;16.10;;;;;;;;;;5036825;28;20068;-72
2023/10/20 03:58:29;;;;;;;26.73;14.85;;;;;;;;;;5050624;28;20036;-72
2023/10/20 04:01:01;;;;;;;29.20;15.27;;;;;;;;;;5045372;28;20044;-73
2023/10/20 04:03:27;;;;;;;25.25;14.95;;;;;;;;;;5051105;28;20036;-73
2023/10/20 04:05:53;;;;;;;27.05;14.57;;;;;;;;;;5050326;28;20064;-72
2023/10/20 04:08:20;;;;;;;28.63;15.00;;;;;;;;;;5033744;28;20025;-72
2023/10/20 04:10:46;;;;;;;25.13;15.98;;;;;;;;;;5035156;28;20033;-73
2023/10/20 04:13:12;;;;;;;31.35;16.50;;;;;;;;;;5039031;28;20037;-73
2023/10/20 04:15:42;;;;;;;34.58;16.23;;;;;;;;;;5039355;28;20037;-73
2023/10/20 04:18:09;;;;;;;24.42;15.70;;;;;;;;;;5045886;28;20033;-73
2023/10/20 04:20:39;;;;;;;27.48;16.02;;;;;;;;;;5044458;28;20026;-73
2023/10/20 04:23:07;;;;;;;35.38;15.38;;;;;;;;;;5051310;28;20512;-72
2023/10/20 04:25:39;;;;;;;28.27;15.75;;;;;;;;;;5047774;28;20031;-73
2023/10/20 05:07:52;;;;;;;26.17;14.43;;;;;;;;;;5046129;28;20045;-73
2023/10/20 05:10:21;;;;;;;25.63;13.98;;;;;;;;;;5035251;28;20292;-75
2023/10/20 05:12:48;;;;;;;22.05;12.63;;;;;;;;;;5048471;28;20025;-77
2023/10/20 05:15:14;;;;;;;20.30;13.63;;;;;;;;;;5028653;28;20399;-75
2023/10/20 05:17:40;;;;;;;20.33;13.15;;;;;;;;;;5046755;28;20064;-76
2023/10/20 05:20:13;;;;;;;21.98;11.38;;;;;;;;;;5042698;28;20024;-75
2023/10/20 05:22:40;;;;;;;20.67;13.00;;;;;;;;;;5046151;28;20032;-75
2023/10/20 05:25:07;;;;;;;20.88;12.50;;;;;;;;;;5047715;28;20039;-75
2023/10/20 05:27:33;;;;;;;19.10;12.00;;;;;;;;;;5046725;28;20044;-75
2023/10/20 05:29:59;;;;;;;24.08;13.00;;;;;;;;;;5049974;28;20077;-76
2023/10/20 05:32:25;;;;;;;21.73;11.88;;;;;;;;;;5031945;28;20033;-75
2023/10/20 05:34:53;;;;;;;20.95;12.07;;;;;;;;;;5054420;28;20041;-76
2023/10/20 05:37:21;;;;;;;27.33;15.93;;;;;;;;;;5052126;28;20041;-76
2023/10/20 05:39:47;;;;;;;23.50;13.50;;;;;;;;;;5048459;28;20029;-72
2023/10/20 05:42:13;;;;;;;20.70;12.30;;;;;;;;;;5066692;28;20057;-75
2023/10/20 05:47:24;;;;;;;21.95;11.18;;;;;;;;;;5053666;28;20458;-75
2023/10/20 05:49:50;;;;;;;15.77;9.82;;;;;;;;;;5049819;28;20057;-75
2023/10/20 05:52:16;;;;;;;17.10;10.38;;;;;;;;;;5045575;28;20033;-76
2023/10/20 05:54:44;;;;;;;15.93;10.18;;;;;;;;;;5049725;28;20052;-76
2023/10/20 05:57:10;;;;;;;20.75;10.90;;;;;;;;;;5052516;28;20043;-76
2023/10/20 05:59:36;;;;;;;17.17;9.88;;;;;;;;;;5018599;28;20033;-75
2023/10/20 06:02:03;;;;;;;18.17;9.55;;;;;;;;;;5049768;28;20542;-75
2023/10/20 06:04:29;;;;;;;19.40;9.73;;;;;;;;;;5049279;28;20029;-75
2023/10/20 06:06:56;;;;;;;18.95;9.63;;;;;;;;;;5053016;28;20379;-76
2023/10/20 06:09:25;;;;;;;17.35;9.45;;;;;;;;;;5044622;28;20056;-77
2023/10/20 06:11:53;;;;;;;13.52;8.13;;;;;;;;;;5035610;28;20029;-75
2023/10/20 06:14:20;;;;;;;14.57;8.45;;;;;;;;;;5041501;28;20487;-77
2023/10/20 06:16:46;;;;;;;13.60;8.75;;;;;;;;;;5047969;28;20037;-76
2023/10/20 06:19:12;;;;;;;16.42;8.18;;;;;;;;;;5049142;28;20390;-76
2023/10/20 06:21:42;;;;;;;14.25;8.48;;;;;;;;;;5045838;28;20040;-76
2023/10/20 06:24:08;;;;;;;14.40;7.80;;;;;;;;;;5039493;28;20061;-75
2023/10/20 06:26:34;;;;;;;13.00;8.07;;;;;;;;;;5052066;28;20064;-75
2023/10/20 06:29:00;;;;;;;13.55;6.90;;;;;;;;;;5044130;28;20034;-76
2023/10/20 06:31:47;;;;;;;10.95;6.90;;;;;;;;;;5052815;28;20040;-75
2023/10/20 06:34:23;;;;;;;12.07;7.38;;;;;;;;;;5041154;28;20045;-75
2023/10/20 06:36:51;;;;;;;15.00;6.63;;;;;;;;;;5037908;28;20040;-75
2023/10/20 06:39:21;;;;;;;11.07;6.78;;;;;;;;;;5024201;28;20037;-76
2023/10/20 06:41:47;;;;;;;11.43;7.00;;;;;;;;;;5052421;28;20386;-76
2023/10/20 06:44:13;;;;;;;10.73;6.10;;;;;;;;;;5047187;28;20021;-75
2023/10/20 06:46:39;;;;;;;9.45;6.22;;;;;;;;;;5044368;28;20420;-75
2023/10/20 06:49:07;;;;;;;9.32;5.95;;;;;;;;;;5043740;28;20038;-77
2023/10/20 06:51:33;;;;;;;11.50;6.00;;;;;;;;;;5040992;28;20025;-74
2023/10/20 06:53:59;;;;;;;10.35;6.25;;;;;;;;;;5045979;28;20036;-74
2023/10/20 06:56:25;;;;;;;7.85;4.88;;;;;;;;;;5051119;28;20045;-75
2023/10/20 06:58:51;;;;;;;10.70;6.05;;;;;;;;;;5048421;28;20049;-75
2023/10/20 07:01:18;;;;;;;7.90;5.22;;;;;;;;;;5045142;28;20033;-81
2023/10/20 07:03:44;;;;;;;12.48;6.75;;;;;;;;;;5051295;28;20035;-82
2023/10/20 07:06:11;;;;;;;12.73;5.97;;;;;;;;;;5042369;28;20032;-78
2023/10/20 07:08:37;;;;;;;9.75;5.22;;;;;;;;;;5050205;28;20041;-83
2023/10/20 07:11:04;;;;;;;10.88;5.70;;;;;;;;;;5036039;28;20053;-81
2023/10/20 07:13:34;;;;;;;10.38;5.53;;;;;;;;;;5033086;28;20072;-81
2023/10/20 07:16:00;;;;;;;9.75;5.05;;;;;;;;;;5046664;28;20111;-81
2023/10/20 07:18:29;;;;;;;8.93;4.57;;;;;;;;;;5047275;28;20095;-84
2023/10/20 07:20:55;;;;;;;11.65;4.70;;;;;;;;;;5039268;28;20099;-84
2023/10/20 07:23:21;;;;;;;7.45;4.20;;;;;;;;;;5032995;28;20029;-83
2023/10/20 07:25:47;;;;;;;9.52;4.82;;;;;;;;;;5042223;28;20040;-83
2023/10/20 07:28:13;;;;;;;8.70;4.78;;;;;;;;;;5040366;28;20447;-82
2023/10/20 07:30:40;;;;;;;8.52;4.45;;;;;;;;;;5045282;28;20399;-83
2023/10/20 07:33:07;;;;;;;13.02;4.57;;;;;;;;;;5046596;28;20466;-82
2023/10/20 07:35:33;;;;;;;8.88;4.20;;;;;;;;;;5047517;28;20058;-81
2023/10/20 07:37:59;;;;;;;7.88;3.60;;;;;;;;;;5043181;28;20093;-81
2023/10/20 07:40:26;;;;;;;8.95;4.05;;;;;;;;;;5049371;28;20033;-81
2023/10/20 07:42:53;;;;;;;7.72;4.07;;;;;;;;;;5017801;28;20082;-82
2023/10/20 07:45:19;;;;;;;7.43;3.45;;;;;;;;;;5043826;28;20026;-81
2023/10/20 07:47:46;;;;;;;14.43;3.58;;;;;;;;;;5042063;28;20433;-81
2023/10/20 07:50:12;;;;;;;6.20;3.47;;;;;;;;;;5039870;28;20033;-81
2023/10/20 07:52:39;;;;;;;6.55;2.95;;;;;;;;;;5047922;28;20044;-80
2023/10/20 07:55:05;;;;;;;6.45;2.70;;;;;;;;;;5043231;28;20514;-79
2023/10/20 07:57:31;;;;;;;4.07;2.83;;;;;;;;;;5042182;28;20036;-79
2023/10/20 07:59:57;;;;;;;5.25;2.83;;;;;;;;;;5044373;28;20029;-80
2023/10/20 08:02:23;;;;;;;7.00;2.95;;;;;;;;;;5040521;28;20113;-80
2023/10/20 08:04:50;;;;;;;4.90;2.63;;;;;;;;;;5044748;28;20124;-81
2023/10/20 08:07:17;;;;;;;5.13;2.65;;;;;;;;;;5047228;28;20025;-81
2023/10/20 08:09:42;;;;;;;4.43;2.47;;;;;;;;;;5040590;28;20041;-80
2023/10/20 08:12:09;;;;;;;4.13;2.30;;;;;;;;;;5045394;28;20039;-80
2023/10/20 08:14:35;;;;;;;3.65;2.20;;;;;;;;;;5034959;28;20025;-81
2023/10/20 08:17:03;;;;;;;7.65;2.60;;;;;;;;;;5043074;28;20037;-81
2023/10/20 08:19:30;;;;;;;4.35;2.50;;;;;;;;;;5039503;28;20099;-80
2023/10/20 08:21:57;;;;;;;3.67;2.08;;;;;;;;;;5040549;28;20037;-80
2023/10/20 08:24:23;;;;;;;4.22;2.53;;;;;;;;;;5045852;28;20044;-80
2023/10/20 08:26:49;;;;;;;3.90;2.30;;;;;;;;;;5043005;28;20116;-80
2023/10/20 08:29:16;;;;;;;4.97;2.30;;;;;;;;;;5046220;28;20029;-80
2023/10/20 08:31:42;;;;;;;3.35;2.33;;;;;;;;;;5048568;28;20034;-81
2023/10/20 08:34:09;;;;;;;3.13;1.85;;;;;;;;;;5050987;28;20082;-81
2023/10/20 08:36:36;;;;;;;3.35;1.73;;;;;;;;;;5030370;28;20044;-80
2023/10/20 08:39:12;;;;;;;2.75;1.80;;;;;;;;;;5034538;28;20053;-80
2023/10/20 08:41:40;;;;;;;3.30;2.00;;;;;;;;;;5043518;28;20112;-80
2023/10/20 08:44:06;;;;;;;3.60;1.80;;;;;;;;;;5049727;28;20025;-79
2023/10/20 08:46:34;;;;;;;4.88;1.60;;;;;;;;;;5047253;28;20040;-79
2023/10/20 08:49:05;;;;;;;3.92;1.73;;;;;;;;;;5045758;28;20040;-78
2023/10/20 08:51:31;;;;;;;3.10;1.80;;;;;;;;;;5034236;28;20052;-79
2023/10/20 08:53:57;;;;;;;6.43;2.10;;;;;;;;;;5048753;28;20433;-79
2023/10/20 08:56:23;;;;;;;4.15;1.75;;;;;;;;;;5045057;28;20507;-79
2023/10/20 08:58:49;;;;;;;4.25;1.80;;;;;;;;;;5046047;28;20199;-79
2023/10/20 09:01:16;;;;;;;3.47;1.83;;;;;;;;;;5043989;28;20110;-79
2023/10/20 09:03:46;;;;;;;2.83;1.90;;;;;;;;;;5038326;28;20052;-79
2023/10/20 09:06:16;;;;;;;1.95;1.50;;;;;;;;;;5016933;28;20403;-78
2023/10/20 09:08:47;;;;;;;2.63;1.67;;;;;;;;;;5028523;28;20495;-78
2023/10/20 09:11:13;;;;;;;2.22;1.67;;;;;;;;;;5044951;28;20064;-78
2023/10/20 09:13:43;;;;;;;2.78;1.75;;;;;;;;;;5019366;28;20509;-80
2023/10/20 09:16:10;;;;;;;2.38;1.30;;;;;;;;;;5043159;28;20037;-78
2023/10/20 09:18:42;;;;;;;2.05;1.73;;;;;;;;;;5032684;28;20037;-78
2023/10/20 09:21:08;;;;;;;2.13;1.50;;;;;;;;;;5048198;28;20100;-78
2023/10/20 09:23:34;;;;;;;6.10;1.80;;;;;;;;;;5040925;28;20164;-78
2023/10/20 09:26:00;;;;;;;2.47;1.70;;;;;;;;;;5024381;28;20475;-78
2023/10/20 09:28:27;;;;;;;2.70;1.90;;;;;;;;;;5049863;28;20044;-78
2023/10/20 09:30:54;;;;;;;2.88;1.80;;;;;;;;;;5048884;28;20383;-78
2023/10/20 09:33:21;;;;;;;1.92;1.23;;;;;;;;;;5017522;28;20025;-78
2023/10/20 09:35:47;;;;;;;2.30;1.40;;;;;;;;;;5033597;28;20104;-78
2023/10/20 09:38:15;;;;;;;2.42;1.60;;;;;;;;;;5038147;28;20025;-77
2023/10/20 09:40:42;;;;;;;2.53;1.90;;;;;;;;;;5044002;28;20048;-73
2023/10/20 09:43:24;;;;;;;4.65;2.55;;;;;;;;;;5036411;28;20041;-78
2023/10/20 09:45:52;;;;;;;3.72;2.60;;;;;;;;;;5048616;28;20037;-78
2023/10/20 09:48:19;;;;;;;2.35;1.80;;;;;;;;;;5048637;28;20502;-78
2023/10/20 09:50:47;;;;;;;3.95;1.77;;;;;;;;;;5046309;28;20037;-78
2023/10/20 09:53:16;;;;;;;1.40;1.30;;;;;;;;;;5048235;28;20554;-78
2023/10/20 09:55:47;;;;;;;2.72;1.40;;;;;;;;;;5040633;28;20512;-79
2023/10/20 09:58:13;;;;;;;2.33;1.40;;;;;;;;;;5041085;28;20482;-80
2023/10/20 10:00:43;;;;;;;9.35;1.50;;;;;;;;;;5044332;28;20063;-80
2023/10/20 10:03:09;;;;;;;5.10;1.40;;;;;;;;;;5040972;28;20471;-80
2023/10/20 10:05:38;;;;;;;3.47;1.77;;;;;;;;;;5045392;28;20044;-81
2023/10/20 10:08:10;;;;;;;3.95;1.33;;;;;;;;;;5030371;28;20025;-82
2023/10/20 10:10:36;;;;;;;4.85;1.70;;;;;;;;;;5026152;28;20116;-81
2023/10/20 10:13:06;;;;;;;2.95;1.70;;;;;;;;;;5030383;28;20033;-80
2023/10/20 10:15:51;;;;;;;2.38;1.58;;;;;;;;;;5039107;28;20041;-81
2023/10/20 10:18:18;;;;;;;2.92;1.67;;;;;;;;;;5049702;28;20078;-81
2023/10/20 10:20:48;;;;;;;3.83;1.30;;;;;;;;;;5040850;28;20037;-81
2023/10/20 10:23:14;;;;;;;4.35;1.40;;;;;;;;;;5049119;28;20116;-81
2023/10/20 10:25:49;;;;;;;1.23;1.10;;;;;;;;;;5025817;28;20029;-81
2023/10/20 10:28:17;;;;;;;2.95;1.25;;;;;;;;;;5047718;28;20529;-80
2023/10/20 10:30:45;;;;;;;1.55;1.02;;;;;;;;;;5049274;28;20395;-81
2023/10/20 10:33:12;;;;;;;1.45;1.08;;;;;;;;;;5041997;28;20041;-80
2023/10/20 10:35:40;;;;;;;0.98;0.82;;;;;;;;;;5039812;28;20033;-82
2023/10/20 10:38:09;;;;;;;3.63;1.00;;;;;;;;;;5040698;28;20175;-81
2023/10/20 10:40:44;;;;;;;0.88;0.88;;;;;;;;;;5040265;28;20101;-81
2023/10/20 10:43:13;;;;;;;1.90;1.00;;;;;;;;;;5041332;28;20032;-82
2023/10/20 10:45:40;;;;;;;2.65;1.00;;;;;;;;;;5039628;28;20169;-81
2023/10/20 10:48:06;;;;;;;2.35;0.95;;;;;;;;;;5040163;28;20041;-81
2023/10/20 10:50:33;;;;;;;6.10;0.80;;;;;;;;;;5039802;28;20029;-81
2023/10/20 10:52:59;;;;;;;2.80;0.80;;;;;;;;;;5038252;28;20467;-81
2023/10/20 10:55:26;;;;;;;0.75;0.63;;;;;;;;;;5043309;28;20060;-82
2023/10/20 10:57:52;;;;;;;1.23;0.70;;;;;;;;;;5036472;28;20061;-82
2023/10/20 11:00:18;;;;;;;4.68;0.80;;;;;;;;;;5039942;28;20025;-82
2023/10/20 11:02:45;;;;;;;0.85;0.70;;;;;;;;;;5041831;28;20033;-82
2023/10/20 11:05:11;;;;;;;0.70;0.60;;;;;;;;;;5021676;28;20044;-82
2023/10/20 11:07:37;;;;;;;2.15;0.75;;;;;;;;;;5042782;28;20147;-82
2023/10/20 11:10:04;;;;;;;0.57;0.57;;;;;;;;;;5044062;28;20030;-82
2023/10/20 11:12:30;;;;;;;0.63;0.52;;;;;;;;;;5043209;28;20045;-82
2023/10/20 11:14:57;;;;;;;1.02;0.77;;;;;;;;;;5039742;28;20104;-82
2023/10/20 11:17:23;;;;;;;1.00;0.50;;;;;;;;;;5038173;28;20033;-83
2023/10/20 11:19:49;;;;;;;1.02;0.52;;;;;;;;;;5037857;28;20391;-82
2023/10/20 11:22:16;;;;;;;3.33;0.50;;;;;;;;;;5042885;28;20389;-82
2023/10/20 11:24:42;;;;;;;1.67;0.55;;;;;;;;;;5036420;28;20551;-82
2023/10/20 11:27:08;;;;;;;3.25;0.50;;;;;;;;;;5040010;28;20048;-82
2023/10/20 11:29:35;;;;;;;1.80;1.17;;;;;;;;;;5041233;28;20025;-81
2023/10/20 11:32:05;;;;;;;5.88;0.70;;;;;;;;;;5037794;28;20112;-83
2023/10/20 11:34:37;;;;;;;0.80;0.50;;;;;;;;;;5039565;28;20044;-84
2023/10/20 11:37:04;;;;;;;0.77;0.73;;;;;;;;;;5030007;28;20183;-84
2023/10/20 11:39:33;;;;;;;2.28;0.63;;;;;;;;;;5036368;28;20108;-84
2023/10/20 11:41:59;;;;;;;0.73;0.50;;;;;;;;;;5040452;28;20041;-81
2023/10/20 11:44:26;;;;;;;0.77;0.77;;;;;;;;;;5041531;28;20033;-81
2023/10/20 11:46:53;;;;;;;0.90;0.60;;;;;;;;;;5037977;28;20038;-81
2023/10/20 11:49:20;;;;;;;0.40;0.30;;;;;;;;;;5019606;28;20438;-82
2023/10/20 11:51:47;;;;;;;0.30;0.30;;;;;;;;;;5033828;28;20034;-82
2023/10/20 11:54:14;;;;;;;1.85;0.40;;;;;;;;;;5039597;28;20128;-83
2023/10/20 11:56:41;;;;;;;0.40;0.40;;;;;;;;;;5036186;28;20042;-82
2023/10/20 11:59:08;;;;;;;0.77;0.38;;;;;;;;;;5037873;28;20112;-82
2023/10/20 12:01:34;;;;;;;0.50;0.40;;;;;;;;;;5032066;28;20036;-82
2023/10/20 12:04:06;;;;;;;0.40;0.30;;;;;;;;;;5036202;28;20140;-83
2023/10/20 12:06:36;;;;;;;0.95;0.57;;;;;;;;;;5039247;28;20075;-82
2023/10/20 12:09:02;;;;;;;1.70;0.40;;;;;;;;;;5039074;28;20116;-82
2023/10/20 12:11:28;;;;;;;0.20;0.20;;;;;;;;;;5024576;28;20087;-82
2023/10/20 12:13:54;;;;;;;0.30;0.30;;;;;;;;;;5036983;28;20086;-83
2023/10/20 12:16:24;;;;;;;0.30;0.20;;;;;;;;;;5049615;28;20515;-82
2023/10/20 12:18:51;;;;;;;0.30;0.30;;;;;;;;;;5040532;28;20036;-82
2023/10/20 12:21:17;;;;;;;0.30;0.30;;;;;;;;;;5036237;28;20483;-82
2023/10/20 12:23:43;;;;;;;1.55;1.08;;;;;;;;;;5034751;28;20112;-79
2023/10/20 12:26:09;;;;;;;1.48;0.70;;;;;;;;;;5044975;28;20371;-80
2023/10/20 12:28:35;;;;;;;0.80;0.70;;;;;;;;;;5049938;28;20158;-80
2023/10/20 12:31:01;;;;;;;0.90;0.63;;;;;;;;;;5040493;28;20138;-80
2023/10/20 12:33:27;;;;;;;0.55;0.47;;;;;;;;;;5037451;28;20143;-81
2023/10/20 12:35:54;;;;;;;1.10;0.98;;;;;;;;;;5046599;28;20044;-81
2023/10/20 12:38:21;;;;;;;4.80;1.50;;;;;;;;;;5047320;28;20024;-81
2023/10/20 12:40:48;;;;;;;2.15;0.75;;;;;;;;;;5049244;28;20025;-84
2023/10/20 12:43:14;;;;;;;0.75;0.50;;;;;;;;;;5040766;28;20111;-80
2023/10/20 12:45:41;;;;;;;0.50;0.50;;;;;;;;;;5048846;28;20107;-81
2023/10/20 12:48:07;;;;;;;1.30;1.00;;;;;;;;;;5043811;28;20522;-82
2023/10/20 12:50:33;;;;;;;0.55;0.52;;;;;;;;;;5030257;28;20029;-81
2023/10/20 12:53:00;;;;;;;2.05;0.40;;;;;;;;;;5046928;28;20017;-81
2023/10/20 12:55:26;;;;;;;1.20;0.70;;;;;;;;;;5028518;28;20053;-80
2023/10/20 12:57:52;;;;;;;0.65;0.52;;;;;;;;;;5037992;28;20601;-80
2023/10/20 13:00:19;;;;;;;1.67;0.60;;;;;;;;;;5050465;28;20162;-80
2023/10/20 13:02:48;;;;;;;0.80;0.47;;;;;;;;;;5047952;28;20029;-81
2023/10/20 13:05:14;;;;;;;0.95;0.43;;;;;;;;;;5041276;28;20034;-81
2023/10/20 13:07:41;;;;;;;0.40;0.40;;;;;;;;;;5033646;28;20048;-80
2023/10/20 13:10:07;;;;;;;0.57;0.40;;;;;;;;;;5029898;28;20034;-81
2023/10/20 13:12:33;;;;;;;0.43;0.32;;;;;;;;;;5042496;28;20033;-81
2023/10/20 13:14:59;;;;;;;0.57;0.40;;;;;;;;;;5035263;28;20029;-80
2023/10/20 13:17:27;;;;;;;0.98;0.40;;;;;;;;;;5047170;28;20112;-81
2023/10/20 13:19:53;;;;;;;0.65;0.40;;;;;;;;;;5031402;28;20919;-82
2023/10/20 13:22:19;;;;;;;1.77;0.28;;;;;;;;;;5039580;28;20094;-82
2023/10/20 13:24:45;;;;;;;0.73;0.57;;;;;;;;;;5042234;28;20035;-82
2023/10/20 13:27:12;;;;;;;2.13;0.65;;;;;;;;;;5047399;28;20115;-81
2023/10/20 13:29:38;;;;;;;2.47;0.40;;;;;;;;;;5023302;28;20394;-81
2023/10/20 13:32:05;;;;;;;0.43;0.20;;;;;;;;;;5042604;28;20038;-82
2023/10/20 13:34:32;;;;;;;0.65;0.30;;;;;;;;;;5042322;28;20048;-82
2023/10/20 13:36:58;;;;;;;3.17;2.17;;;;;;;;;;5046370;28;20079;-82
2023/10/20 13:39:24;;;;;;;0.40;0.38;;;;;;;;;;5037739;28;20070;-81
2023/10/20 13:41:50;;;;;;;0.68;0.50;;;;;;;;;;5045676;28;20033;-82
2023/10/20 13:44:16;;;;;;;1.00;0.90;;;;;;;;;;5044015;28;20029;-82
2023/10/20 13:46:42;;;;;;;0.98;0.88;;;;;;;;;;5046474;28;20079;-82
2023/10/20 13:49:08;;;;;;;1.73;1.10;;;;;;;;;;5048323;28;20060;-82
2023/10/20 13:51:35;;;;;;;3.05;0.90;;;;;;;;;;5053922;28;20040;-82
2023/10/20 13:54:01;;;;;;;16.77;10.95;;;;;;;;;;5039799;28;20026;-82
2023/10/20 13:56:27;;;;;;;3.78;2.30;;;;;;;;;;5043860;28;20049;-81
2023/10/20 13:58:53;;;;;;;2.03;1.80;;;;;;;;;;5024057;28;20444;-82
2023/10/20 14:01:20;;;;;;;1.98;1.70;;;;;;;;;;5054635;28;20041;-82
2023/10/20 14:03:46;;;;;;;1.50;1.17;;;;;;;;;;5054038;28;20409;-82
2023/10/20 14:06:12;;;;;;;1.75;1.50;;;;;;;;;;5051548;28;20041;-81
2023/10/20 14:08:38;;;;;;;2.15;1.90;;;;;;;;;;5054226;28;20386;-81
2023/10/20 14:11:05;;;;;;;1.02;0.90;;;;;;;;;;5043786;28;20038;-83
2023/10/20 14:13:31;;;;;;;1.00;0.90;;;;;;;;;;5027062;28;20475;-82
2023/10/20 14:15:58;;;;;;;1.00;0.75;;;;;;;;;;5046146;28;20072;-81
2023/10/20 14:18:24;;;;;;;5.15;0.90;;;;;;;;;;5048020;28;20029;-83
2023/10/20 14:20:50;;;;;;;0.90;0.70;;;;;;;;;;5041091;28;20026;-82
2023/10/20 14:23:17;;;;;;;1.17;0.70;;;;;;;;;;5033951;28;20037;-82
2023/10/20 14:25:44;;;;;;;4.35;1.60;;;;;;;;;;5040582;28;20072;-82
2023/10/20 14:28:10;;;;;;;2.75;1.25;;;;;;;;;;5052497;28;20495;-82
2023/10/20 14:30:36;;;;;;;0.90;0.70;;;;;;;;;;5040232;28;20028;-81
2023/10/20 14:33:02;;;;;;;1.75;0.70;;;;;;;;;;5049054;28;20032;-82
2023/10/20 14:35:28;;;;;;;0.85;0.40;;;;;;;;;;5043333;28;20515;-82
2023/10/20 14:37:54;;;;;;;3.45;0.30;;;;;;;;;;5036857;28;20061;-82
2023/10/20 14:40:20;;;;;;;0.40;0.40;;;;;;;;;;5041168;28;20076;-81
2023/10/20 14:42:46;;;;;;;2.58;0.98;;;;;;;;;;5049554;28;20033;-81
2023/10/20 14:45:12;;;;;;;37.20;14.05;;;;;;;;;;5039462;28;20041;-81
2023/10/20 14:47:38;;;;;;;0.77;0.60;;;;;;;;;;5050933;28;20067;-81
2023/10/20 14:50:04;;;;;;;1.05;0.95;;;;;;;;;;5039291;28;20090;-81
2023/10/20 14:52:30;;;;;;;1.83;1.73;;;;;;;;;;5035878;28;20040;-82
2023/10/20 14:54:56;;;;;;;0.98;0.65;;;;;;;;;;5038246;28;20037;-83
2023/10/20 14:57:23;;;;;;;4.45;0.60;;;;;;;;;;5048824;28;20465;-81
2023/10/20 14:59:49;;;;;;;0.90;0.43;;;;;;;;;;5049457;28;20021;-82
2023/10/20 15:02:15;;;;;;;0.22;0.20;;;;;;;;;;5040786;28;20491;-81
2023/10/20 15:04:41;;;;;;;2.17;0.55;;;;;;;;;;5042543;28;20114;-80
2023/10/20 15:07:07;;;;;;;1.30;0.60;;;;;;;;;;5037694;28;20044;-79
2023/10/20 15:09:33;;;;;;;1.25;0.40;;;;;;;;;;5049077;28;20075;-79
2023/10/20 15:11:59;;;;;;;2.97;0.50;;;;;;;;;;5047015;28;20106;-79
2023/10/20 15:14:25;;;;;;;5.80;0.43;;;;;;;;;;5048381;28;20035;-78